sensor_id;sensor_type;location;lat;lon;timestamp;P1;durP1;ratioP1;P2;durP2;ratioP2
80621;SDS011;69980;51.914;7.526;2023-08-31T00:00:01;4.68;;;3.22;;
80621;SDS011;69980;51.914;7.526;2023-08-31T00:02:26;3.83;;;3.20;;
80621;SDS011;69980;51.914;7.526;2023-08-31T00:04:52;7.32;;;3.13;;
80621;SDS011;69980;51.914;7.526;2023-08-31T00:07:17;7.40;;;3.50;;
80621;SDS011;69980;51.914;7.526;2023-08-31T00:09:42;6.63;;;3.22;;
80621;SDS011;69980;51.914;7.526;2023-08-31T00:12:08;5.88;;;3.55;;
80621;SDS011;69980;51.914;7.526;2023-08-31T00:14:33;7.65;;;3.70;;
80621;SDS011;69980;51.914;7.526;2023-08-31T00:16:58;5.80;;;3.58;;
80621;SDS011;69980;51.914;7.526;2023-08-31T00:19:24;6.28;;;3.42;;
80621;SDS011;69980;51.914;7.526;2023-08-31T00:21:49;5.70;;;3.33;;
80621;SDS011;69980;51.914;7.526;2023-08-31T00:24:14;6.15;;;3.25;;
80621;SDS011;69980;51.914;7.526;2023-08-31T00:26:39;6.10;;;3.30;;
80621;SDS011;69980;51.914;7.526;2023-08-31T00:29:05;7.45;;;3.78;;
80621;SDS011;69980;51.914;7.526;2023-08-31T00:31:30;6.30;;;3.35;;
80621;SDS011;69980;51.914;7.526;2023-08-31T00:33:55;4.57;;;3.00;;
80621;SDS011;69980;51.914;7.526;2023-08-31T00:36:21;7.13;;;4.05;;
80621;SDS011;69980;51.914;7.526;2023-08-31T00:38:46;7.57;;;4.10;;
80621;SDS011;69980;51.914;7.526;2023-08-31T00:41:11;6.00;;;3.78;;
80621;SDS011;69980;51.914;7.526;2023-08-31T00:43:37;7.80;;;4.30;;
80621;SDS011;69980;51.914;7.526;2023-08-31T00:46:02;7.15;;;4.00;;
80621;SDS011;69980;51.914;7.526;2023-08-31T00:48:27;6.63;;;3.85;;
80621;SDS011;69980;51.914;7.526;2023-08-31T00:50:53;7.38;;;3.78;;
80621;SDS011;69980;51.914;7.526;2023-08-31T00:53:18;7.38;;;4.05;;
80621;SDS011;69980;51.914;7.526;2023-08-31T00:55:44;7.78;;;4.18;;
80621;SDS011;69980;51.914;7.526;2023-08-31T00:58:10;7.60;;;3.95;;
80621;SDS011;69980;51.914;7.526;2023-08-31T01:06:41;6.18;;;4.00;;
80621;SDS011;69980;51.914;7.526;2023-08-31T01:09:21;6.90;;;4.20;;
80621;SDS011;69980;51.914;7.526;2023-08-31T01:12:06;6.45;;;4.32;;
80621;SDS011;69980;51.914;7.526;2023-08-31T01:17:22;8.65;;;4.07;;
80621;SDS011;69980;51.914;7.526;2023-08-31T01:19:49;8.35;;;4.10;;
80621;SDS011;69980;51.914;7.526;2023-08-31T01:22:18;6.53;;;4.20;;
80621;SDS011;69980;51.914;7.526;2023-08-31T01:24:50;5.27;;;4.17;;
80621;SDS011;69980;51.914;7.526;2023-08-31T01:27:16;7.57;;;4.70;;
80621;SDS011;69980;51.914;7.526;2023-08-31T01:29:41;6.10;;;4.05;;
80621;SDS011;69980;51.914;7.526;2023-08-31T01:32:06;8.57;;;4.20;;
80621;SDS011;69980;51.914;7.526;2023-08-31T01:34:32;6.07;;;4.45;;
80621;SDS011;69980;51.914;7.526;2023-08-31T01:36:58;9.15;;;4.57;;
80621;SDS011;69980;51.914;7.526;2023-08-31T01:39:31;8.57;;;4.75;;
80621;SDS011;69980;51.914;7.526;2023-08-31T01:42:00;6.65;;;4.30;;
80621;SDS011;69980;51.914;7.526;2023-08-31T01:44:28;7.22;;;4.32;;
80621;SDS011;69980;51.914;7.526;2023-08-31T01:47:02;6.45;;;4.10;;
80621;SDS011;69980;51.914;7.526;2023-08-31T01:49:34;6.80;;;3.97;;
80621;SDS011;69980;51.914;7.526;2023-08-31T01:52:01;5.18;;;3.63;;
80621;SDS011;69980;51.914;7.526;2023-08-31T01:54:26;5.18;;;3.40;;
80621;SDS011;69980;51.914;7.526;2023-08-31T01:56:51;5.38;;;3.53;;
80621;SDS011;69980;51.914;7.526;2023-08-31T01:59:16;5.15;;;3.30;;
80621;SDS011;69980;51.914;7.526;2023-08-31T02:01:42;5.50;;;3.08;;
80621;SDS011;69980;51.914;7.526;2023-08-31T02:04:07;5.38;;;3.10;;
80621;SDS011;69980;51.914;7.526;2023-08-31T02:06:33;4.95;;;2.90;;
80621;SDS011;69980;51.914;7.526;2023-08-31T02:08:58;6.30;;;3.08;;
80621;SDS011;69980;51.914;7.526;2023-08-31T02:11:23;4.38;;;2.60;;
80621;SDS011;69980;51.914;7.526;2023-08-31T02:13:48;4.35;;;2.67;;
80621;SDS011;69980;51.914;7.526;2023-08-31T02:16:14;5.07;;;2.70;;
80621;SDS011;69980;51.914;7.526;2023-08-31T02:18:39;4.22;;;2.70;;
80621;SDS011;69980;51.914;7.526;2023-08-31T02:21:04;4.50;;;2.72;;
80621;SDS011;69980;51.914;7.526;2023-08-31T02:23:30;5.78;;;2.88;;
80621;SDS011;69980;51.914;7.526;2023-08-31T02:25:55;4.50;;;2.80;;
80621;SDS011;69980;51.914;7.526;2023-08-31T02:28:20;6.30;;;2.75;;
80621;SDS011;69980;51.914;7.526;2023-08-31T02:30:46;4.90;;;2.85;;
80621;SDS011;69980;51.914;7.526;2023-08-31T02:33:11;4.40;;;3.10;;
80621;SDS011;69980;51.914;7.526;2023-08-31T02:35:36;5.82;;;3.10;;
80621;SDS011;69980;51.914;7.526;2023-08-31T02:38:01;6.15;;;3.60;;
80621;SDS011;69980;51.914;7.526;2023-08-31T02:40:27;5.40;;;3.45;;
80621;SDS011;69980;51.914;7.526;2023-08-31T02:42:52;7.90;;;3.95;;
80621;SDS011;69980;51.914;7.526;2023-08-31T02:45:17;7.50;;;3.80;;
80621;SDS011;69980;51.914;7.526;2023-08-31T02:47:43;8.15;;;4.28;;
80621;SDS011;69980;51.914;7.526;2023-08-31T02:50:08;6.93;;;4.15;;
80621;SDS011;69980;51.914;7.526;2023-08-31T02:52:33;5.60;;;3.90;;
80621;SDS011;69980;51.914;7.526;2023-08-31T02:54:59;5.28;;;4.13;;
80621;SDS011;69980;51.914;7.526;2023-08-31T02:57:24;6.53;;;4.78;;
80621;SDS011;69980;51.914;7.526;2023-08-31T02:59:50;5.80;;;4.40;;
80621;SDS011;69980;51.914;7.526;2023-08-31T03:02:15;5.32;;;4.43;;
80621;SDS011;69980;51.914;7.526;2023-08-31T03:04:40;6.88;;;4.70;;
80621;SDS011;69980;51.914;7.526;2023-08-31T03:07:06;6.55;;;5.00;;
80621;SDS011;69980;51.914;7.526;2023-08-31T03:09:31;8.95;;;5.47;;
80621;SDS011;69980;51.914;7.526;2023-08-31T03:11:56;7.22;;;5.50;;
80621;SDS011;69980;51.914;7.526;2023-08-31T03:14:22;7.35;;;5.28;;
80621;SDS011;69980;51.914;7.526;2023-08-31T03:16:47;7.82;;;5.32;;
80621;SDS011;69980;51.914;7.526;2023-08-31T03:19:13;9.80;;;6.13;;
80621;SDS011;69980;51.914;7.526;2023-08-31T03:21:38;6.95;;;5.68;;
80621;SDS011;69980;51.914;7.526;2023-08-31T03:24:03;9.05;;;6.10;;
80621;SDS011;69980;51.914;7.526;2023-08-31T03:26:29;8.65;;;6.35;;
80621;SDS011;69980;51.914;7.526;2023-08-31T03:28:54;8.32;;;5.90;;
80621;SDS011;69980;51.914;7.526;2023-08-31T03:31:19;8.70;;;6.15;;
80621;SDS011;69980;51.914;7.526;2023-08-31T03:33:45;10.13;;;7.07;;
80621;SDS011;69980;51.914;7.526;2023-08-31T03:36:10;9.63;;;6.68;;
80621;SDS011;69980;51.914;7.526;2023-08-31T03:38:35;7.53;;;6.10;;
80621;SDS011;69980;51.914;7.526;2023-08-31T03:41:00;9.00;;;6.32;;
80621;SDS011;69980;51.914;7.526;2023-08-31T03:43:26;8.88;;;6.90;;
80621;SDS011;69980;51.914;7.526;2023-08-31T03:45:54;8.55;;;7.13;;
80621;SDS011;69980;51.914;7.526;2023-08-31T03:48:20;7.75;;;6.43;;
80621;SDS011;69980;51.914;7.526;2023-08-31T03:50:48;9.38;;;6.40;;
80621;SDS011;69980;51.914;7.526;2023-08-31T03:53:14;10.85;;;7.35;;
80621;SDS011;69980;51.914;7.526;2023-08-31T03:55:39;11.75;;;7.00;;
80621;SDS011;69980;51.914;7.526;2023-08-31T03:58:04;10.07;;;6.88;;
80621;SDS011;69980;51.914;7.526;2023-08-31T04:00:30;9.77;;;7.60;;
80621;SDS011;69980;51.914;7.526;2023-08-31T04:02:55;9.60;;;7.18;;
80621;SDS011;69980;51.914;7.526;2023-08-31T04:05:20;8.88;;;6.90;;
80621;SDS011;69980;51.914;7.526;2023-08-31T04:07:45;11.07;;;7.45;;
80621;SDS011;69980;51.914;7.526;2023-08-31T04:10:11;10.32;;;7.18;;
80621;SDS011;69980;51.914;7.526;2023-08-31T04:12:36;10.40;;;7.57;;
80621;SDS011;69980;51.914;7.526;2023-08-31T04:15:02;9.40;;;7.57;;
80621;SDS011;69980;51.914;7.526;2023-08-31T04:17:27;13.93;;;8.52;;
80621;SDS011;69980;51.914;7.526;2023-08-31T04:19:53;10.48;;;8.05;;
80621;SDS011;69980;51.914;7.526;2023-08-31T04:22:18;11.85;;;8.27;;
80621;SDS011;69980;51.914;7.526;2023-08-31T04:24:44;14.13;;;9.52;;
80621;SDS011;69980;51.914;7.526;2023-08-31T04:27:09;10.85;;;9.10;;
80621;SDS011;69980;51.914;7.526;2023-08-31T04:29:34;12.00;;;9.38;;
80621;SDS011;69980;51.914;7.526;2023-08-31T04:32:00;13.90;;;9.88;;
80621;SDS011;69980;51.914;7.526;2023-08-31T04:34:25;10.55;;;9.25;;
80621;SDS011;69980;51.914;7.526;2023-08-31T04:36:52;11.63;;;10.18;;
80621;SDS011;69980;51.914;7.526;2023-08-31T04:39:17;11.73;;;8.98;;
80621;SDS011;69980;51.914;7.526;2023-08-31T04:41:42;13.00;;;10.10;;
80621;SDS011;69980;51.914;7.526;2023-08-31T04:44:08;13.30;;;11.48;;
80621;SDS011;69980;51.914;7.526;2023-08-31T04:46:33;15.75;;;10.63;;
80621;SDS011;69980;51.914;7.526;2023-08-31T04:48:58;12.90;;;9.88;;
80621;SDS011;69980;51.914;7.526;2023-08-31T04:51:30;13.48;;;11.85;;
80621;SDS011;69980;51.914;7.526;2023-08-31T04:53:57;12.70;;;11.05;;
80621;SDS011;69980;51.914;7.526;2023-08-31T04:56:22;14.57;;;12.60;;
80621;SDS011;69980;51.914;7.526;2023-08-31T04:58:48;13.43;;;10.98;;
80621;SDS011;69980;51.914;7.526;2023-08-31T05:01:13;15.38;;;11.63;;
80621;SDS011;69980;51.914;7.526;2023-08-31T05:03:38;13.38;;;11.82;;
80621;SDS011;69980;51.914;7.526;2023-08-31T05:06:04;14.77;;;12.95;;
80621;SDS011;69980;51.914;7.526;2023-08-31T05:08:29;15.43;;;13.15;;
80621;SDS011;69980;51.914;7.526;2023-08-31T05:10:54;14.15;;;12.63;;
80621;SDS011;69980;51.914;7.526;2023-08-31T05:13:20;17.20;;;14.13;;
80621;SDS011;69980;51.914;7.526;2023-08-31T05:15:45;14.18;;;12.75;;
80621;SDS011;69980;51.914;7.526;2023-08-31T05:18:10;18.02;;;13.35;;
80621;SDS011;69980;51.914;7.526;2023-08-31T05:20:35;16.55;;;13.60;;
80621;SDS011;69980;51.914;7.526;2023-08-31T05:23:01;16.38;;;12.90;;
80621;SDS011;69980;51.914;7.526;2023-08-31T05:25:26;17.30;;;14.18;;
80621;SDS011;69980;51.914;7.526;2023-08-31T05:27:51;16.30;;;14.00;;
80621;SDS011;69980;51.914;7.526;2023-08-31T05:30:17;17.10;;;13.93;;
80621;SDS011;69980;51.914;7.526;2023-08-31T05:32:42;15.60;;;13.30;;
80621;SDS011;69980;51.914;7.526;2023-08-31T05:35:07;55.88;;;17.70;;
80621;SDS011;69980;51.914;7.526;2023-08-31T05:37:33;16.65;;;13.25;;
80621;SDS011;69980;51.914;7.526;2023-08-31T05:39:58;22.58;;;14.13;;
80621;SDS011;69980;51.914;7.526;2023-08-31T05:42:24;19.25;;;13.15;;
80621;SDS011;69980;51.914;7.526;2023-08-31T05:44:49;14.75;;;12.90;;
80621;SDS011;69980;51.914;7.526;2023-08-31T05:47:14;17.58;;;13.70;;
80621;SDS011;69980;51.914;7.526;2023-08-31T05:49:39;12.70;;;11.38;;
80621;SDS011;69980;51.914;7.526;2023-08-31T05:52:05;50.88;;;15.73;;
80621;SDS011;69980;51.914;7.526;2023-08-31T05:54:30;43.58;;;16.08;;
80621;SDS011;69980;51.914;7.526;2023-08-31T05:56:56;32.63;;;15.60;;
80621;SDS011;69980;51.914;7.526;2023-08-31T05:59:21;63.13;;;18.20;;
80621;SDS011;69980;51.914;7.526;2023-08-31T06:01:46;26.52;;;14.80;;
80621;SDS011;69980;51.914;7.526;2023-08-31T06:04:12;22.48;;;14.85;;
80621;SDS011;69980;51.914;7.526;2023-08-31T06:06:37;16.45;;;14.32;;
80621;SDS011;69980;51.914;7.526;2023-08-31T06:09:02;21.17;;;14.45;;
80621;SDS011;69980;51.914;7.526;2023-08-31T06:11:28;69.25;;;21.27;;
80621;SDS011;69980;51.914;7.526;2023-08-31T06:13:53;18.83;;;15.98;;
80621;SDS011;69980;51.914;7.526;2023-08-31T06:16:18;18.73;;;16.60;;
80621;SDS011;69980;51.914;7.526;2023-08-31T06:18:43;20.00;;;16.10;;
80621;SDS011;69980;51.914;7.526;2023-08-31T06:21:09;18.40;;;16.35;;
80621;SDS011;69980;51.914;7.526;2023-08-31T06:23:34;21.63;;;18.90;;
80621;SDS011;69980;51.914;7.526;2023-08-31T06:26:00;21.15;;;17.92;;
80621;SDS011;69980;51.914;7.526;2023-08-31T06:28:25;20.70;;;18.48;;
80621;SDS011;69980;51.914;7.526;2023-08-31T06:30:50;20.20;;;18.02;;
80621;SDS011;69980;51.914;7.526;2023-08-31T06:33:16;19.70;;;17.60;;
80621;SDS011;69980;51.914;7.526;2023-08-31T06:35:41;21.95;;;18.73;;
80621;SDS011;69980;51.914;7.526;2023-08-31T06:38:06;21.10;;;18.83;;
80621;SDS011;69980;51.914;7.526;2023-08-31T06:40:32;21.85;;;19.38;;
80621;SDS011;69980;51.914;7.526;2023-08-31T06:42:57;21.83;;;18.73;;
80621;SDS011;69980;51.914;7.526;2023-08-31T06:45:22;22.80;;;18.65;;
80621;SDS011;69980;51.914;7.526;2023-08-31T06:47:48;21.98;;;18.08;;
80621;SDS011;69980;51.914;7.526;2023-08-31T06:50:13;19.90;;;17.23;;
80621;SDS011;69980;51.914;7.526;2023-08-31T06:52:38;22.52;;;20.13;;
80621;SDS011;69980;51.914;7.526;2023-08-31T06:55:04;20.67;;;18.08;;
80621;SDS011;69980;51.914;7.526;2023-08-31T06:57:29;24.75;;;20.63;;
80621;SDS011;69980;51.914;7.526;2023-08-31T06:59:54;23.48;;;19.85;;
80621;SDS011;69980;51.914;7.526;2023-08-31T07:02:20;24.17;;;20.20;;
80621;SDS011;69980;51.914;7.526;2023-08-31T07:04:45;21.75;;;19.13;;
80621;SDS011;69980;51.914;7.526;2023-08-31T07:07:11;21.10;;;18.83;;
80621;SDS011;69980;51.914;7.526;2023-08-31T07:09:37;21.25;;;18.92;;
80621;SDS011;69980;51.914;7.526;2023-08-31T07:12:02;19.55;;;17.08;;
80621;SDS011;69980;51.914;7.526;2023-08-31T07:14:27;20.02;;;17.92;;
80621;SDS011;69980;51.914;7.526;2023-08-31T07:16:53;18.02;;;16.13;;
80621;SDS011;69980;51.914;7.526;2023-08-31T07:19:18;18.02;;;16.13;;
80621;SDS011;69980;51.914;7.526;2023-08-31T07:21:43;17.42;;;15.57;;
80621;SDS011;69980;51.914;7.526;2023-08-31T07:24:09;18.48;;;16.55;;
80621;SDS011;69980;51.914;7.526;2023-08-31T07:26:34;17.73;;;15.88;;
80621;SDS011;69980;51.914;7.526;2023-08-31T07:28:59;20.50;;;16.88;;
80621;SDS011;69980;51.914;7.526;2023-08-31T07:31:25;18.75;;;16.75;;
80621;SDS011;69980;51.914;7.526;2023-08-31T07:33:50;16.42;;;14.68;;
80621;SDS011;69980;51.914;7.526;2023-08-31T07:36:15;15.57;;;14.07;;
80621;SDS011;69980;51.914;7.526;2023-08-31T07:38:41;15.55;;;13.48;;
80621;SDS011;69980;51.914;7.526;2023-08-31T07:41:06;13.95;;;12.10;;
80621;SDS011;69980;51.914;7.526;2023-08-31T07:43:31;14.82;;;12.02;;
80621;SDS011;69980;51.914;7.526;2023-08-31T07:45:57;13.75;;;12.35;;
80621;SDS011;69980;51.914;7.526;2023-08-31T07:48:23;13.27;;;11.90;;
80621;SDS011;69980;51.914;7.526;2023-08-31T07:50:48;13.35;;;11.52;;
80621;SDS011;69980;51.914;7.526;2023-08-31T07:53:14;11.73;;;10.13;;
80621;SDS011;69980;51.914;7.526;2023-08-31T07:55:39;12.65;;;10.60;;
80621;SDS011;69980;51.914;7.526;2023-08-31T07:58:05;11.18;;;9.30;;
80621;SDS011;69980;51.914;7.526;2023-08-31T08:00:30;13.07;;;8.20;;
80621;SDS011;69980;51.914;7.526;2023-08-31T08:02:55;9.82;;;8.32;;
80621;SDS011;69980;51.914;7.526;2023-08-31T08:05:21;10.23;;;7.72;;
80621;SDS011;69980;51.914;7.526;2023-08-31T08:07:46;9.45;;;6.90;;
80621;SDS011;69980;51.914;7.526;2023-08-31T08:10:11;8.73;;;7.65;;
80621;SDS011;69980;51.914;7.526;2023-08-31T08:12:37;9.75;;;7.45;;
80621;SDS011;69980;51.914;7.526;2023-08-31T08:15:03;7.57;;;6.57;;
80621;SDS011;69980;51.914;7.526;2023-08-31T08:17:29;8.00;;;7.20;;
80621;SDS011;69980;51.914;7.526;2023-08-31T08:19:54;7.03;;;6.30;;
80621;SDS011;69980;51.914;7.526;2023-08-31T08:22:19;7.63;;;6.13;;
80621;SDS011;69980;51.914;7.526;2023-08-31T08:24:45;7.50;;;5.88;;
80621;SDS011;69980;51.914;7.526;2023-08-31T08:27:10;6.45;;;5.20;;
80621;SDS011;69980;51.914;7.526;2023-08-31T08:29:35;6.50;;;5.57;;
80621;SDS011;69980;51.914;7.526;2023-08-31T08:32:01;7.63;;;5.68;;
80621;SDS011;69980;51.914;7.526;2023-08-31T08:34:26;8.13;;;5.60;;
80621;SDS011;69980;51.914;7.526;2023-08-31T08:36:51;6.10;;;4.80;;
80621;SDS011;69980;51.914;7.526;2023-08-31T08:39:16;8.18;;;5.25;;
80621;SDS011;69980;51.914;7.526;2023-08-31T08:41:42;6.13;;;4.60;;
80621;SDS011;69980;51.914;7.526;2023-08-31T08:44:07;7.22;;;4.50;;
80621;SDS011;69980;51.914;7.526;2023-08-31T08:46:33;4.70;;;4.22;;
80621;SDS011;69980;51.914;7.526;2023-08-31T08:49:02;5.22;;;4.35;;
80621;SDS011;69980;51.914;7.526;2023-08-31T08:51:29;6.07;;;4.20;;
80621;SDS011;69980;51.914;7.526;2023-08-31T08:53:54;7.63;;;4.47;;
80621;SDS011;69980;51.914;7.526;2023-08-31T08:56:19;6.88;;;4.28;;
80621;SDS011;69980;51.914;7.526;2023-08-31T08:58:45;6.50;;;4.70;;
80621;SDS011;69980;51.914;7.526;2023-08-31T09:01:10;6.28;;;4.13;;
80621;SDS011;69980;51.914;7.526;2023-08-31T09:03:36;7.93;;;4.40;;
80621;SDS011;69980;51.914;7.526;2023-08-31T09:06:01;6.20;;;4.55;;
80621;SDS011;69980;51.914;7.526;2023-08-31T09:08:27;8.10;;;4.43;;
80621;SDS011;69980;51.914;7.526;2023-08-31T09:10:54;7.25;;;4.20;;
80621;SDS011;69980;51.914;7.526;2023-08-31T09:13:20;6.45;;;3.78;;
80621;SDS011;69980;51.914;7.526;2023-08-31T09:15:46;6.18;;;3.90;;
80621;SDS011;69980;51.914;7.526;2023-08-31T09:18:31;7.75;;;3.60;;
80621;SDS011;69980;51.914;7.526;2023-08-31T09:20:57;8.55;;;3.33;;
80621;SDS011;69980;51.914;7.526;2023-08-31T09:23:22;5.32;;;3.10;;
80621;SDS011;69980;51.914;7.526;2023-08-31T09:25:52;6.15;;;3.47;;
80621;SDS011;69980;51.914;7.526;2023-08-31T09:28:26;6.35;;;2.90;;
80621;SDS011;69980;51.914;7.526;2023-08-31T09:30:52;5.47;;;2.85;;
80621;SDS011;69980;51.914;7.526;2023-08-31T09:33:18;4.80;;;3.15;;
80621;SDS011;69980;51.914;7.526;2023-08-31T09:35:48;5.30;;;2.83;;
80621;SDS011;69980;51.914;7.526;2023-08-31T09:38:14;4.65;;;2.50;;
80621;SDS011;69980;51.914;7.526;2023-08-31T09:40:39;4.32;;;2.45;;
80621;SDS011;69980;51.914;7.526;2023-08-31T09:43:05;5.28;;;2.50;;
80621;SDS011;69980;51.914;7.526;2023-08-31T09:45:31;5.50;;;2.70;;
80621;SDS011;69980;51.914;7.526;2023-08-31T09:47:58;4.97;;;2.40;;
80621;SDS011;69980;51.914;7.526;2023-08-31T09:50:24;5.07;;;2.45;;
80621;SDS011;69980;51.914;7.526;2023-08-31T09:52:50;3.55;;;2.15;;
80621;SDS011;69980;51.914;7.526;2023-08-31T09:55:20;3.10;;;1.83;;
80621;SDS011;69980;51.914;7.526;2023-08-31T09:57:46;5.03;;;2.08;;
80621;SDS011;69980;51.914;7.526;2023-08-31T10:00:13;4.57;;;2.17;;
80621;SDS011;69980;51.914;7.526;2023-08-31T10:02:38;7.63;;;2.53;;
80621;SDS011;69980;51.914;7.526;2023-08-31T10:05:04;5.50;;;1.42;;
80621;SDS011;69980;51.914;7.526;2023-08-31T10:07:30;3.55;;;1.52;;
80621;SDS011;69980;51.914;7.526;2023-08-31T10:09:55;4.25;;;1.60;;
80621;SDS011;69980;51.914;7.526;2023-08-31T10:12:22;5.00;;;1.45;;
80621;SDS011;69980;51.914;7.526;2023-08-31T10:14:47;4.95;;;1.70;;
80621;SDS011;69980;51.914;7.526;2023-08-31T10:17:13;4.63;;;1.63;;
80621;SDS011;69980;51.914;7.526;2023-08-31T10:19:38;2.88;;;1.52;;
80621;SDS011;69980;51.914;7.526;2023-08-31T10:22:05;4.85;;;1.90;;
80621;SDS011;69980;51.914;7.526;2023-08-31T10:27:21;5.65;;;1.08;;
80621;SDS011;69980;51.914;7.526;2023-08-31T10:29:46;3.50;;;0.98;;
80621;SDS011;69980;51.914;7.526;2023-08-31T10:32:16;4.18;;;1.20;;
80621;SDS011;69980;51.914;7.526;2023-08-31T10:34:42;2.83;;;0.98;;
80621;SDS011;69980;51.914;7.526;2023-08-31T10:37:19;4.85;;;0.80;;
80621;SDS011;69980;51.914;7.526;2023-08-31T10:39:45;5.68;;;0.80;;
80621;SDS011;69980;51.914;7.526;2023-08-31T10:42:10;2.83;;;0.60;;
80621;SDS011;69980;51.914;7.526;2023-08-31T10:44:35;2.17;;;0.65;;
80621;SDS011;69980;51.914;7.526;2023-08-31T10:47:02;3.15;;;0.90;;
80621;SDS011;69980;51.914;7.526;2023-08-31T10:49:28;3.95;;;0.90;;
80621;SDS011;69980;51.914;7.526;2023-08-31T10:51:57;3.05;;;1.00;;
80621;SDS011;69980;51.914;7.526;2023-08-31T10:54:39;7.97;;;1.05;;
80621;SDS011;69980;51.914;7.526;2023-08-31T10:57:05;5.00;;;1.10;;
80621;SDS011;69980;51.914;7.526;2023-08-31T10:59:41;3.25;;;0.90;;
80621;SDS011;69980;51.914;7.526;2023-08-31T11:02:07;4.45;;;1.30;;
80621;SDS011;69980;51.914;7.526;2023-08-31T11:04:52;3.95;;;1.40;;
80621;SDS011;69980;51.914;7.526;2023-08-31T11:07:24;4.32;;;1.40;;
80621;SDS011;69980;51.914;7.526;2023-08-31T11:09:51;5.47;;;1.40;;
80621;SDS011;69980;51.914;7.526;2023-08-31T11:12:16;3.90;;;1.60;;
80621;SDS011;69980;51.914;7.526;2023-08-31T11:14:41;5.40;;;1.40;;
80621;SDS011;69980;51.914;7.526;2023-08-31T11:17:07;4.05;;;1.30;;
80621;SDS011;69980;51.914;7.526;2023-08-31T11:19:33;3.13;;;1.40;;
80621;SDS011;69980;51.914;7.526;2023-08-31T11:22:02;6.00;;;1.60;;
80621;SDS011;69980;51.914;7.526;2023-08-31T11:24:29;3.78;;;1.40;;
80621;SDS011;69980;51.914;7.526;2023-08-31T11:26:55;4.63;;;1.70;;
80621;SDS011;69980;51.914;7.526;2023-08-31T11:29:20;3.67;;;1.55;;
80621;SDS011;69980;51.914;7.526;2023-08-31T11:31:46;4.25;;;2.00;;
80621;SDS011;69980;51.914;7.526;2023-08-31T11:34:16;4.68;;;1.70;;
80621;SDS011;69980;51.914;7.526;2023-08-31T11:36:42;6.20;;;1.60;;
80621;SDS011;69980;51.914;7.526;2023-08-31T11:39:11;3.33;;;1.33;;
80621;SDS011;69980;51.914;7.526;2023-08-31T11:41:37;4.63;;;1.58;;
80621;SDS011;69980;51.914;7.526;2023-08-31T11:44:03;6.07;;;1.70;;
80621;SDS011;69980;51.914;7.526;2023-08-31T11:46:29;3.17;;;1.20;;
80621;SDS011;69980;51.914;7.526;2023-08-31T11:48:55;4.95;;;1.60;;
80621;SDS011;69980;51.914;7.526;2023-08-31T11:51:21;5.20;;;1.50;;
80621;SDS011;69980;51.914;7.526;2023-08-31T11:53:46;5.28;;;1.40;;
80621;SDS011;69980;51.914;7.526;2023-08-31T11:56:12;3.92;;;1.42;;
80621;SDS011;69980;51.914;7.526;2023-08-31T11:58:41;3.63;;;1.55;;
80621;SDS011;69980;51.914;7.526;2023-08-31T12:01:06;8.27;;;2.17;;
80621;SDS011;69980;51.914;7.526;2023-08-31T12:03:41;4.20;;;1.63;;
80621;SDS011;69980;51.914;7.526;2023-08-31T12:06:07;5.03;;;1.92;;
80621;SDS011;69980;51.914;7.526;2023-08-31T12:08:32;3.58;;;1.63;;
80621;SDS011;69980;51.914;7.526;2023-08-31T12:10:59;6.18;;;1.85;;
80621;SDS011;69980;51.914;7.526;2023-08-31T12:13:25;4.03;;;1.90;;
80621;SDS011;69980;51.914;7.526;2023-08-31T12:15:52;6.20;;;2.30;;
80621;SDS011;69980;51.914;7.526;2023-08-31T12:18:18;4.47;;;2.20;;
80621;SDS011;69980;51.914;7.526;2023-08-31T12:20:44;3.83;;;1.77;;
80621;SDS011;69980;51.914;7.526;2023-08-31T12:23:10;2.95;;;2.00;;
80621;SDS011;69980;51.914;7.526;2023-08-31T12:25:35;4.72;;;2.35;;
80621;SDS011;69980;51.914;7.526;2023-08-31T12:28:01;5.93;;;2.45;;
80621;SDS011;69980;51.914;7.526;2023-08-31T12:30:26;5.78;;;2.90;;
80621;SDS011;69980;51.914;7.526;2023-08-31T12:32:51;6.07;;;2.55;;
80621;SDS011;69980;51.914;7.526;2023-08-31T12:35:17;4.95;;;2.53;;
80621;SDS011;69980;51.914;7.526;2023-08-31T12:37:42;4.50;;;2.30;;
80621;SDS011;69980;51.914;7.526;2023-08-31T12:40:07;4.00;;;2.63;;
80621;SDS011;69980;51.914;7.526;2023-08-31T12:42:33;3.60;;;2.60;;
80621;SDS011;69980;51.914;7.526;2023-08-31T12:44:58;5.13;;;2.75;;
80621;SDS011;69980;51.914;7.526;2023-08-31T12:47:24;5.30;;;2.92;;
80621;SDS011;69980;51.914;7.526;2023-08-31T12:49:49;4.55;;;3.17;;
80621;SDS011;69980;51.914;7.526;2023-08-31T12:52:15;4.63;;;2.60;;
80621;SDS011;69980;51.914;7.526;2023-08-31T12:54:40;4.28;;;2.83;;
80621;SDS011;69980;51.914;7.526;2023-08-31T12:57:05;6.32;;;3.13;;
80621;SDS011;69980;51.914;7.526;2023-08-31T12:59:31;5.90;;;3.08;;
80621;SDS011;69980;51.914;7.526;2023-08-31T13:01:56;5.05;;;3.05;;
80621;SDS011;69980;51.914;7.526;2023-08-31T13:04:21;4.95;;;3.05;;
80621;SDS011;69980;51.914;7.526;2023-08-31T13:06:47;5.68;;;3.58;;
80621;SDS011;69980;51.914;7.526;2023-08-31T13:09:12;4.75;;;3.13;;
80621;SDS011;69980;51.914;7.526;2023-08-31T13:11:37;5.32;;;3.05;;
80621;SDS011;69980;51.914;7.526;2023-08-31T13:14:02;5.28;;;3.50;;
80621;SDS011;69980;51.914;7.526;2023-08-31T13:16:28;6.90;;;3.67;;
80621;SDS011;69980;51.914;7.526;2023-08-31T13:18:53;4.68;;;3.30;;
80621;SDS011;69980;51.914;7.526;2023-08-31T13:21:18;6.38;;;3.88;;
80621;SDS011;69980;51.914;7.526;2023-08-31T13:23:47;5.85;;;3.80;;
80621;SDS011;69980;51.914;7.526;2023-08-31T13:26:12;5.25;;;3.60;;
80621;SDS011;69980;51.914;7.526;2023-08-31T13:28:37;6.05;;;3.67;;
80621;SDS011;69980;51.914;7.526;2023-08-31T13:31:03;5.63;;;3.72;;
80621;SDS011;69980;51.914;7.526;2023-08-31T13:33:28;6.05;;;3.60;;
80621;SDS011;69980;51.914;7.526;2023-08-31T13:35:54;6.28;;;4.07;;
80621;SDS011;69980;51.914;7.526;2023-08-31T13:38:21;5.80;;;4.00;;
80621;SDS011;69980;51.914;7.526;2023-08-31T13:40:46;4.80;;;3.30;;
80621;SDS011;69980;51.914;7.526;2023-08-31T13:43:13;5.07;;;3.15;;
80621;SDS011;69980;51.914;7.526;2023-08-31T13:45:38;4.33;;;3.00;;
80621;SDS011;69980;51.914;7.526;2023-08-31T13:48:03;3.72;;;2.83;;
80621;SDS011;69980;51.914;7.526;2023-08-31T13:50:29;4.15;;;2.78;;
80621;SDS011;69980;51.914;7.526;2023-08-31T13:52:54;5.00;;;2.67;;
80621;SDS011;69980;51.914;7.526;2023-08-31T13:55:19;5.00;;;2.60;;
80621;SDS011;69980;51.914;7.526;2023-08-31T13:57:45;6.28;;;2.55;;
80621;SDS011;69980;51.914;7.526;2023-08-31T14:00:10;5.10;;;3.42;;
80621;SDS011;69980;51.914;7.526;2023-08-31T14:02:36;4.50;;;2.95;;
80621;SDS011;69980;51.914;7.526;2023-08-31T14:05:02;4.72;;;2.88;;
80621;SDS011;69980;51.914;7.526;2023-08-31T14:07:28;6.25;;;2.70;;
80621;SDS011;69980;51.914;7.526;2023-08-31T14:09:54;5.25;;;2.63;;
80621;SDS011;69980;51.914;7.526;2023-08-31T14:12:20;3.85;;;2.53;;
80621;SDS011;69980;51.914;7.526;2023-08-31T14:14:45;4.97;;;2.42;;
80621;SDS011;69980;51.914;7.526;2023-08-31T14:17:10;4.22;;;2.10;;
80621;SDS011;69980;51.914;7.526;2023-08-31T14:19:36;4.15;;;2.22;;
80621;SDS011;69980;51.914;7.526;2023-08-31T14:22:01;4.63;;;1.92;;
80621;SDS011;69980;51.914;7.526;2023-08-31T14:24:26;3.13;;;1.52;;
80621;SDS011;69980;51.914;7.526;2023-08-31T14:26:52;2.80;;;1.30;;
80621;SDS011;69980;51.914;7.526;2023-08-31T14:29:17;2.58;;;1.20;;
80621;SDS011;69980;51.914;7.526;2023-08-31T14:31:42;3.00;;;1.10;;
80621;SDS011;69980;51.914;7.526;2023-08-31T14:34:08;2.78;;;1.00;;
80621;SDS011;69980;51.914;7.526;2023-08-31T14:36:33;2.60;;;1.08;;
80621;SDS011;69980;51.914;7.526;2023-08-31T14:38:58;3.05;;;1.10;;
80621;SDS011;69980;51.914;7.526;2023-08-31T14:41:24;3.15;;;1.10;;
80621;SDS011;69980;51.914;7.526;2023-08-31T14:43:49;2.22;;;0.95;;